sensor_id;sensor_type;location;lat;lon;timestamp;P1;durP1;ratioP1;P2;durP2;ratioP2
21128;SDS011;10722;51.910;8.352;2023-06-26T00:01:54;15.07;;;9.43;;
21128;SDS011;10722;51.910;8.352;2023-06-26T00:04:39;18.45;;;9.90;;
21128;SDS011;10722;51.910;8.352;2023-06-26T00:07:26;18.67;;;9.82;;
21128;SDS011;10722;51.910;8.352;2023-06-26T00:10:11;17.25;;;9.48;;
21128;SDS011;10722;51.910;8.352;2023-06-26T00:12:56;16.55;;;9.57;;
21128;SDS011;10722;51.910;8.352;2023-06-26T00:15:41;16.08;;;9.63;;
21128;SDS011;10722;51.910;8.352;2023-06-26T00:18:27;18.90;;;10.30;;
21128;SDS011;10722;51.910;8.352;2023-06-26T00:21:12;15.93;;;9.63;;
21128;SDS011;10722;51.910;8.352;2023-06-26T00:23:58;19.30;;;9.80;;
21128;SDS011;10722;51.910;8.352;2023-06-26T00:26:43;17.02;;;9.90;;
21128;SDS011;10722;51.910;8.352;2023-06-26T00:29:31;18.40;;;10.10;;
21128;SDS011;10722;51.910;8.352;2023-06-26T00:32:17;17.55;;;10.05;;
21128;SDS011;10722;51.910;8.352;2023-06-26T00:35:02;17.13;;;9.82;;
21128;SDS011;10722;51.910;8.352;2023-06-26T00:37:47;16.40;;;9.50;;
21128;SDS011;10722;51.910;8.352;2023-06-26T00:40:32;16.52;;;9.80;;
21128;SDS011;10722;51.910;8.352;2023-06-26T00:43:18;17.20;;;9.68;;
21128;SDS011;10722;51.910;8.352;2023-06-26T00:46:03;15.63;;;9.15;;
21128;SDS011;10722;51.910;8.352;2023-06-26T00:48:48;16.52;;;9.07;;
21128;SDS011;10722;51.910;8.352;2023-06-26T00:51:34;17.25;;;9.63;;
21128;SDS011;10722;51.910;8.352;2023-06-26T00:54:19;15.77;;;9.02;;
21128;SDS011;10722;51.910;8.352;2023-06-26T00:57:05;16.17;;;9.10;;
21128;SDS011;10722;51.910;8.352;2023-06-26T00:59:51;16.90;;;9.73;;
21128;SDS011;10722;51.910;8.352;2023-06-26T01:02:36;15.50;;;9.63;;
21128;SDS011;10722;51.910;8.352;2023-06-26T01:05:23;15.90;;;9.23;;
21128;SDS011;10722;51.910;8.352;2023-06-26T01:08:08;16.40;;;8.75;;
21128;SDS011;10722;51.910;8.352;2023-06-26T01:10:54;17.38;;;9.75;;
21128;SDS011;10722;51.910;8.352;2023-06-26T01:13:39;15.45;;;9.45;;
21128;SDS011;10722;51.910;8.352;2023-06-26T01:16:26;16.83;;;9.68;;
21128;SDS011;10722;51.910;8.352;2023-06-26T01:19:23;16.83;;;9.45;;
21128;SDS011;10722;51.910;8.352;2023-06-26T01:25:20;18.05;;;9.75;;
21128;SDS011;10722;51.910;8.352;2023-06-26T01:28:14;16.60;;;9.35;;
21128;SDS011;10722;51.910;8.352;2023-06-26T01:30:59;15.93;;;9.40;;
21128;SDS011;10722;51.910;8.352;2023-06-26T01:33:45;15.85;;;9.18;;
21128;SDS011;10722;51.910;8.352;2023-06-26T01:36:31;16.55;;;9.68;;
21128;SDS011;10722;51.910;8.352;2023-06-26T01:39:18;15.95;;;9.48;;
21128;SDS011;10722;51.910;8.352;2023-06-26T01:42:04;16.35;;;9.40;;
21128;SDS011;10722;51.910;8.352;2023-06-26T01:44:49;16.17;;;9.35;;
21128;SDS011;10722;51.910;8.352;2023-06-26T01:47:35;15.15;;;9.13;;
21128;SDS011;10722;51.910;8.352;2023-06-26T01:50:24;15.52;;;8.68;;
21128;SDS011;10722;51.910;8.352;2023-06-26T01:53:16;15.55;;;9.32;;
21128;SDS011;10722;51.910;8.352;2023-06-26T01:56:14;15.38;;;9.30;;
21128;SDS011;10722;51.910;8.352;2023-06-26T01:59:03;15.98;;;9.20;;
21128;SDS011;10722;51.910;8.352;2023-06-26T02:01:50;15.15;;;8.90;;
21128;SDS011;10722;51.910;8.352;2023-06-26T02:04:37;15.85;;;9.18;;
21128;SDS011;10722;51.910;8.352;2023-06-26T02:07:23;16.65;;;9.02;;
21128;SDS011;10722;51.910;8.352;2023-06-26T02:10:08;15.65;;;9.30;;
21128;SDS011;10722;51.910;8.352;2023-06-26T02:12:54;17.55;;;8.98;;
21128;SDS011;10722;51.910;8.352;2023-06-26T02:15:39;15.73;;;9.20;;
21128;SDS011;10722;51.910;8.352;2023-06-26T02:18:25;17.58;;;9.68;;
21128;SDS011;10722;51.910;8.352;2023-06-26T02:21:10;16.85;;;9.23;;
21128;SDS011;10722;51.910;8.352;2023-06-26T02:23:56;18.23;;;9.52;;
21128;SDS011;10722;51.910;8.352;2023-06-26T02:26:41;16.73;;;9.90;;
21128;SDS011;10722;51.910;8.352;2023-06-26T02:29:26;17.33;;;9.85;;
21128;SDS011;10722;51.910;8.352;2023-06-26T02:32:12;16.90;;;9.65;;
21128;SDS011;10722;51.910;8.352;2023-06-26T02:34:57;16.10;;;9.57;;
21128;SDS011;10722;51.910;8.352;2023-06-26T02:37:42;16.67;;;9.68;;
21128;SDS011;10722;51.910;8.352;2023-06-26T02:40:28;15.98;;;10.00;;
21128;SDS011;10722;51.910;8.352;2023-06-26T02:43:13;15.57;;;9.60;;
21128;SDS011;10722;51.910;8.352;2023-06-26T02:45:58;15.63;;;9.80;;
21128;SDS011;10722;51.910;8.352;2023-06-26T02:48:44;17.23;;;9.60;;
21128;SDS011;10722;51.910;8.352;2023-06-26T02:51:31;17.20;;;10.02;;
21128;SDS011;10722;51.910;8.352;2023-06-26T02:54:17;17.40;;;9.98;;
21128;SDS011;10722;51.910;8.352;2023-06-26T02:57:02;15.25;;;9.20;;
21128;SDS011;10722;51.910;8.352;2023-06-26T02:59:47;17.70;;;10.27;;
21128;SDS011;10722;51.910;8.352;2023-06-26T03:02:33;18.50;;;9.90;;
21128;SDS011;10722;51.910;8.352;2023-06-26T03:05:18;16.98;;;9.60;;
21128;SDS011;10722;51.910;8.352;2023-06-26T03:08:04;15.52;;;9.25;;
21128;SDS011;10722;51.910;8.352;2023-06-26T03:10:49;17.13;;;9.52;;
21128;SDS011;10722;51.910;8.352;2023-06-26T03:13:35;19.83;;;9.85;;
21128;SDS011;10722;51.910;8.352;2023-06-26T03:16:21;15.95;;;9.52;;
21128;SDS011;10722;51.910;8.352;2023-06-26T03:19:07;18.20;;;10.18;;
21128;SDS011;10722;51.910;8.352;2023-06-26T03:21:52;16.52;;;9.82;;
21128;SDS011;10722;51.910;8.352;2023-06-26T03:24:37;16.33;;;9.98;;
21128;SDS011;10722;51.910;8.352;2023-06-26T03:27:23;18.67;;;10.48;;
21128;SDS011;10722;51.910;8.352;2023-06-26T03:30:08;18.42;;;9.27;;
21128;SDS011;10722;51.910;8.352;2023-06-26T03:32:54;17.30;;;9.98;;
21128;SDS011;10722;51.910;8.352;2023-06-26T03:35:39;19.48;;;10.38;;
21128;SDS011;10722;51.910;8.352;2023-06-26T03:38:25;16.95;;;9.90;;
21128;SDS011;10722;51.910;8.352;2023-06-26T03:41:10;18.50;;;10.43;;
21128;SDS011;10722;51.910;8.352;2023-06-26T03:43:56;18.65;;;10.05;;
21128;SDS011;10722;51.910;8.352;2023-06-26T03:46:41;17.05;;;9.57;;
21128;SDS011;10722;51.910;8.352;2023-06-26T03:49:27;15.60;;;9.18;;
21128;SDS011;10722;51.910;8.352;2023-06-26T03:52:12;17.23;;;9.93;;
21128;SDS011;10722;51.910;8.352;2023-06-26T03:54:57;16.55;;;9.57;;
21128;SDS011;10722;51.910;8.352;2023-06-26T03:57:43;15.68;;;9.18;;
21128;SDS011;10722;51.910;8.352;2023-06-26T04:00:28;18.02;;;10.05;;
21128;SDS011;10722;51.910;8.352;2023-06-26T04:03:13;16.95;;;10.18;;
21128;SDS011;10722;51.910;8.352;2023-06-26T04:05:59;19.13;;;9.73;;
21128;SDS011;10722;51.910;8.352;2023-06-26T04:08:44;19.00;;;9.75;;
21128;SDS011;10722;51.910;8.352;2023-06-26T04:11:30;15.35;;;8.98;;
21128;SDS011;10722;51.910;8.352;2023-06-26T04:14:15;16.20;;;9.50;;
21128;SDS011;10722;51.910;8.352;2023-06-26T04:17:00;17.52;;;9.55;;
21128;SDS011;10722;51.910;8.352;2023-06-26T04:19:46;16.48;;;9.60;;
21128;SDS011;10722;51.910;8.352;2023-06-26T04:22:32;17.65;;;9.32;;
21128;SDS011;10722;51.910;8.352;2023-06-26T04:25:18;17.73;;;9.18;;
21128;SDS011;10722;51.910;8.352;2023-06-26T04:28:03;17.80;;;9.50;;
21128;SDS011;10722;51.910;8.352;2023-06-26T04:30:48;19.55;;;9.55;;
21128;SDS011;10722;51.910;8.352;2023-06-26T04:33:34;16.30;;;9.02;;
21128;SDS011;10722;51.910;8.352;2023-06-26T04:36:20;16.55;;;9.52;;
21128;SDS011;10722;51.910;8.352;2023-06-26T04:39:06;16.42;;;8.95;;
21128;SDS011;10722;51.910;8.352;2023-06-26T04:41:51;16.23;;;8.93;;
21128;SDS011;10722;51.910;8.352;2023-06-26T04:44:37;17.27;;;9.05;;
21128;SDS011;10722;51.910;8.352;2023-06-26T04:47:22;17.13;;;9.15;;
21128;SDS011;10722;51.910;8.352;2023-06-26T04:50:08;16.48;;;9.15;;
21128;SDS011;10722;51.910;8.352;2023-06-26T04:52:53;16.33;;;8.93;;
21128;SDS011;10722;51.910;8.352;2023-06-26T04:55:39;17.55;;;9.20;;
21128;SDS011;10722;51.910;8.352;2023-06-26T04:58:24;15.77;;;9.20;;
21128;SDS011;10722;51.910;8.352;2023-06-26T05:01:09;18.00;;;8.90;;
21128;SDS011;10722;51.910;8.352;2023-06-26T05:03:55;18.88;;;9.07;;
21128;SDS011;10722;51.910;8.352;2023-06-26T05:06:41;17.63;;;8.52;;
21128;SDS011;10722;51.910;8.352;2023-06-26T05:09:26;18.98;;;8.07;;
21128;SDS011;10722;51.910;8.352;2023-06-26T05:12:12;16.55;;;8.57;;
21128;SDS011;10722;51.910;8.352;2023-06-26T05:15:00;18.35;;;8.15;;
21128;SDS011;10722;51.910;8.352;2023-06-26T05:17:47;14.90;;;8.05;;
21128;SDS011;10722;51.910;8.352;2023-06-26T05:20:33;17.10;;;8.02;;
21128;SDS011;10722;51.910;8.352;2023-06-26T05:23:20;15.35;;;7.80;;
21128;SDS011;10722;51.910;8.352;2023-06-26T05:26:06;16.80;;;7.90;;
21128;SDS011;10722;51.910;8.352;2023-06-26T05:28:51;14.88;;;7.22;;
21128;SDS011;10722;51.910;8.352;2023-06-26T05:31:39;15.98;;;7.38;;
21128;SDS011;10722;51.910;8.352;2023-06-26T05:34:27;14.52;;;7.45;;
21128;SDS011;10722;51.910;8.352;2023-06-26T05:37:17;16.75;;;7.28;;
21128;SDS011;10722;51.910;8.352;2023-06-26T05:40:07;14.48;;;7.38;;
21128;SDS011;10722;51.910;8.352;2023-06-26T05:42:52;13.20;;;6.70;;
21128;SDS011;10722;51.910;8.352;2023-06-26T05:45:38;14.88;;;6.78;;
21128;SDS011;10722;51.910;8.352;2023-06-26T05:48:24;15.30;;;6.95;;
21128;SDS011;10722;51.910;8.352;2023-06-26T05:51:10;14.88;;;7.43;;
21128;SDS011;10722;51.910;8.352;2023-06-26T05:53:55;15.13;;;7.60;;
21128;SDS011;10722;51.910;8.352;2023-06-26T05:56:41;25.48;;;16.08;;
21128;SDS011;10722;51.910;8.352;2023-06-26T05:59:30;14.90;;;7.97;;
21128;SDS011;10722;51.910;8.352;2023-06-26T06:02:16;16.38;;;7.85;;
21128;SDS011;10722;51.910;8.352;2023-06-26T06:05:02;16.85;;;7.85;;
21128;SDS011;10722;51.910;8.352;2023-06-26T06:07:47;20.15;;;8.05;;
21128;SDS011;10722;51.910;8.352;2023-06-26T06:10:34;15.80;;;8.73;;
21128;SDS011;10722;51.910;8.352;2023-06-26T06:13:19;15.07;;;8.00;;
21128;SDS011;10722;51.910;8.352;2023-06-26T06:16:05;19.17;;;8.30;;
21128;SDS011;10722;51.910;8.352;2023-06-26T06:18:50;18.23;;;8.20;;
21128;SDS011;10722;51.910;8.352;2023-06-26T06:21:35;17.35;;;8.25;;
21128;SDS011;10722;51.910;8.352;2023-06-26T06:24:21;18.35;;;8.60;;
21128;SDS011;10722;51.910;8.352;2023-06-26T06:27:06;18.10;;;9.05;;
21128;SDS011;10722;51.910;8.352;2023-06-26T06:29:51;18.92;;;8.77;;
21128;SDS011;10722;51.910;8.352;2023-06-26T06:32:37;41.42;;;30.48;;
21128;SDS011;10722;51.910;8.352;2023-06-26T06:35:22;15.27;;;8.82;;
21128;SDS011;10722;51.910;8.352;2023-06-26T06:38:13;16.35;;;9.15;;
21128;SDS011;10722;51.910;8.352;2023-06-26T06:40:58;16.98;;;9.02;;
21128;SDS011;10722;51.910;8.352;2023-06-26T06:43:43;19.77;;;9.13;;
21128;SDS011;10722;51.910;8.352;2023-06-26T06:46:29;17.55;;;9.13;;
21128;SDS011;10722;51.910;8.352;2023-06-26T06:49:14;17.83;;;8.98;;
21128;SDS011;10722;51.910;8.352;2023-06-26T06:51:59;17.27;;;8.90;;
21128;SDS011;10722;51.910;8.352;2023-06-26T06:54:52;18.38;;;9.48;;
21128;SDS011;10722;51.910;8.352;2023-06-26T06:57:38;18.13;;;9.48;;
21128;SDS011;10722;51.910;8.352;2023-06-26T07:00:24;19.10;;;9.40;;
21128;SDS011;10722;51.910;8.352;2023-06-26T07:03:11;17.77;;;9.23;;
21128;SDS011;10722;51.910;8.352;2023-06-26T07:05:56;17.88;;;9.13;;
21128;SDS011;10722;51.910;8.352;2023-06-26T07:08:41;20.85;;;9.88;;
21128;SDS011;10722;51.910;8.352;2023-06-26T07:11:27;20.30;;;10.43;;
21128;SDS011;10722;51.910;8.352;2023-06-26T07:14:12;16.42;;;9.10;;
21128;SDS011;10722;51.910;8.352;2023-06-26T07:16:58;21.55;;;10.45;;
21128;SDS011;10722;51.910;8.352;2023-06-26T07:19:44;19.85;;;9.93;;
21128;SDS011;10722;51.910;8.352;2023-06-26T07:22:30;20.00;;;8.45;;
21128;SDS011;10722;51.910;8.352;2023-06-26T07:25:16;17.10;;;8.65;;
21128;SDS011;10722;51.910;8.352;2023-06-26T07:28:01;18.55;;;9.25;;
21128;SDS011;10722;51.910;8.352;2023-06-26T07:30:46;20.08;;;9.40;;
21128;SDS011;10722;51.910;8.352;2023-06-26T07:33:31;22.98;;;8.85;;
21128;SDS011;10722;51.910;8.352;2023-06-26T07:36:17;18.58;;;9.18;;
21128;SDS011;10722;51.910;8.352;2023-06-26T07:39:02;17.63;;;9.32;;
21128;SDS011;10722;51.910;8.352;2023-06-26T07:41:47;18.70;;;8.63;;
21128;SDS011;10722;51.910;8.352;2023-06-26T07:44:33;18.98;;;8.23;;
21128;SDS011;10722;51.910;8.352;2023-06-26T07:47:18;20.67;;;9.35;;
21128;SDS011;10722;51.910;8.352;2023-06-26T07:50:03;17.20;;;9.15;;
21128;SDS011;10722;51.910;8.352;2023-06-26T07:52:49;19.73;;;9.55;;
21128;SDS011;10722;51.910;8.352;2023-06-26T07:55:34;19.33;;;9.80;;
21128;SDS011;10722;51.910;8.352;2023-06-26T07:58:19;20.90;;;9.35;;
21128;SDS011;10722;51.910;8.352;2023-06-26T08:01:05;23.15;;;9.95;;
21128;SDS011;10722;51.910;8.352;2023-06-26T08:03:50;20.50;;;9.07;;
21128;SDS011;10722;51.910;8.352;2023-06-26T08:06:35;20.42;;;9.48;;
21128;SDS011;10722;51.910;8.352;2023-06-26T08:09:21;23.30;;;10.23;;
21128;SDS011;10722;51.910;8.352;2023-06-26T08:12:08;22.38;;;11.13;;
21128;SDS011;10722;51.910;8.352;2023-06-26T08:14:56;21.70;;;10.25;;
21128;SDS011;10722;51.910;8.352;2023-06-26T08:17:42;20.23;;;9.90;;
21128;SDS011;10722;51.910;8.352;2023-06-26T08:20:27;22.60;;;10.95;;
21128;SDS011;10722;51.910;8.352;2023-06-26T08:23:12;17.30;;;9.43;;
21128;SDS011;10722;51.910;8.352;2023-06-26T08:25:58;20.23;;;9.68;;
21128;SDS011;10722;51.910;8.352;2023-06-26T08:28:43;19.70;;;9.18;;
21128;SDS011;10722;51.910;8.352;2023-06-26T08:31:28;20.60;;;9.98;;
21128;SDS011;10722;51.910;8.352;2023-06-26T08:34:13;26.25;;;16.13;;
21128;SDS011;10722;51.910;8.352;2023-06-26T08:36:59;25.05;;;9.88;;
21128;SDS011;10722;51.910;8.352;2023-06-26T08:39:44;21.13;;;10.50;;
21128;SDS011;10722;51.910;8.352;2023-06-26T08:42:30;21.45;;;10.57;;
21128;SDS011;10722;51.910;8.352;2023-06-26T08:45:16;19.45;;;10.35;;
21128;SDS011;10722;51.910;8.352;2023-06-26T08:48:01;21.45;;;10.57;;
21128;SDS011;10722;51.910;8.352;2023-06-26T08:50:49;23.30;;;10.20;;
21128;SDS011;10722;51.910;8.352;2023-06-26T08:56:43;22.17;;;10.20;;
21128;SDS011;10722;51.910;8.352;2023-06-26T08:59:31;19.23;;;10.15;;
21128;SDS011;10722;51.910;8.352;2023-06-26T09:02:16;19.27;;;9.65;;
21128;SDS011;10722;51.910;8.352;2023-06-26T09:05:02;20.92;;;9.60;;
21128;SDS011;10722;51.910;8.352;2023-06-26T09:07:47;23.65;;;10.13;;
21128;SDS011;10722;51.910;8.352;2023-06-26T09:10:33;21.33;;;9.10;;
21128;SDS011;10722;51.910;8.352;2023-06-26T09:13:18;23.13;;;9.50;;
21128;SDS011;10722;51.910;8.352;2023-06-26T09:16:14;20.13;;;9.40;;
21128;SDS011;10722;51.910;8.352;2023-06-26T09:18:59;23.13;;;9.18;;
21128;SDS011;10722;51.910;8.352;2023-06-26T09:21:44;21.67;;;8.45;;
21128;SDS011;10722;51.910;8.352;2023-06-26T09:24:30;23.10;;;8.65;;
21128;SDS011;10722;51.910;8.352;2023-06-26T09:27:15;21.05;;;8.63;;
21128;SDS011;10722;51.910;8.352;2023-06-26T09:30:02;18.63;;;8.13;;
21128;SDS011;10722;51.910;8.352;2023-06-26T09:32:49;20.23;;;7.82;;
21128;SDS011;10722;51.910;8.352;2023-06-26T09:35:34;23.85;;;8.35;;
21128;SDS011;10722;51.910;8.352;2023-06-26T09:38:20;19.63;;;7.85;;
21128;SDS011;10722;51.910;8.352;2023-06-26T09:41:05;21.17;;;8.35;;
21128;SDS011;10722;51.910;8.352;2023-06-26T09:43:50;21.90;;;8.13;;
21128;SDS011;10722;51.910;8.352;2023-06-26T09:46:37;21.35;;;7.72;;
21128;SDS011;10722;51.910;8.352;2023-06-26T09:49:23;19.33;;;8.23;;
21128;SDS011;10722;51.910;8.352;2023-06-26T09:52:09;18.15;;;7.95;;
21128;SDS011;10722;51.910;8.352;2023-06-26T09:55:08;17.00;;;6.70;;
21128;SDS011;10722;51.910;8.352;2023-06-26T09:57:55;19.02;;;7.88;;
21128;SDS011;10722;51.910;8.352;2023-06-26T10:00:42;22.13;;;7.18;;
21128;SDS011;10722;51.910;8.352;2023-06-26T10:03:27;17.67;;;7.68;;
21128;SDS011;10722;51.910;8.352;2023-06-26T10:06:12;19.42;;;7.45;;
21128;SDS011;10722;51.910;8.352;2023-06-26T10:08:59;19.30;;;7.15;;
21128;SDS011;10722;51.910;8.352;2023-06-26T10:11:56;18.23;;;6.57;;
21128;SDS011;10722;51.910;8.352;2023-06-26T10:14:42;19.83;;;6.63;;
21128;SDS011;10722;51.910;8.352;2023-06-26T10:17:32;18.35;;;7.60;;
21128;SDS011;10722;51.910;8.352;2023-06-26T10:20:19;18.20;;;6.97;;
21128;SDS011;10722;51.910;8.352;2023-06-26T10:23:04;17.98;;;7.18;;
21128;SDS011;10722;51.910;8.352;2023-06-26T10:25:52;22.00;;;6.90;;
21128;SDS011;10722;51.910;8.352;2023-06-26T10:28:43;17.15;;;6.40;;
21128;SDS011;10722;51.910;8.352;2023-06-26T10:31:30;19.55;;;6.97;;
21128;SDS011;10722;51.910;8.352;2023-06-26T10:34:16;21.05;;;6.38;;
21128;SDS011;10722;51.910;8.352;2023-06-26T10:37:03;20.75;;;6.80;;
21128;SDS011;10722;51.910;8.352;2023-06-26T10:39:49;19.85;;;6.47;;
21128;SDS011;10722;51.910;8.352;2023-06-26T10:42:36;15.80;;;5.63;;
21128;SDS011;10722;51.910;8.352;2023-06-26T10:45:22;16.25;;;5.50;;
21128;SDS011;10722;51.910;8.352;2023-06-26T10:48:16;38.70;;;27.55;;
21128;SDS011;10722;51.910;8.352;2023-06-26T10:51:35;33.10;;;20.75;;
21128;SDS011;10722;51.910;8.352;2023-06-26T10:54:17;15.95;;;5.20;;
21128;SDS011;10722;51.910;8.352;2023-06-26T10:57:03;17.58;;;5.60;;
21128;SDS011;10722;51.910;8.352;2023-06-26T11:00:35;15.57;;;5.63;;
21128;SDS011;10722;51.910;8.352;2023-06-26T11:03:00;16.27;;;5.07;;
21128;SDS011;10722;51.910;8.352;2023-06-26T11:05:46;13.07;;;5.10;;
21128;SDS011;10722;51.910;8.352;2023-06-26T11:14:41;14.30;;;4.70;;
21128;SDS011;10722;51.910;8.352;2023-06-26T11:17:27;13.65;;;4.80;;
21128;SDS011;10722;51.910;8.352;2023-06-26T11:20:14;15.25;;;4.68;;
21128;SDS011;10722;51.910;8.352;2023-06-26T11:23:00;12.23;;;4.35;;
21128;SDS011;10722;51.910;8.352;2023-06-26T11:25:46;13.93;;;4.72;;
21128;SDS011;10722;51.910;8.352;2023-06-26T11:28:31;12.07;;;4.10;;
21128;SDS011;10722;51.910;8.352;2023-06-26T11:34:14;14.65;;;4.25;;
21128;SDS011;10722;51.910;8.352;2023-06-26T11:36:59;12.88;;;4.20;;
21128;SDS011;10722;51.910;8.352;2023-06-26T11:39:44;14.45;;;4.25;;
21128;SDS011;10722;51.910;8.352;2023-06-26T11:42:30;13.77;;;3.70;;
21128;SDS011;10722;51.910;8.352;2023-06-26T11:45:15;11.80;;;3.78;;
21128;SDS011;10722;51.910;8.352;2023-06-26T11:48:01;12.60;;;3.95;;
21128;SDS011;10722;51.910;8.352;2023-06-26T11:50:49;13.35;;;4.00;;
21128;SDS011;10722;51.910;8.352;2023-06-26T11:53:42;17.17;;;3.90;;
21128;SDS011;10722;51.910;8.352;2023-06-26T11:56:29;15.98;;;3.60;;
21128;SDS011;10722;51.910;8.352;2023-06-26T11:59:15;12.52;;;3.42;;
21128;SDS011;10722;51.910;8.352;2023-06-26T12:02:01;11.73;;;3.60;;
21128;SDS011;10722;51.910;8.352;2023-06-26T12:04:50;12.98;;;3.65;;
21128;SDS011;10722;51.910;8.352;2023-06-26T12:07:35;10.45;;;3.70;;
21128;SDS011;10722;51.910;8.352;2023-06-26T12:10:22;13.43;;;4.10;;
21128;SDS011;10722;51.910;8.352;2023-06-26T12:13:07;9.68;;;3.45;;
21128;SDS011;10722;51.910;8.352;2023-06-26T12:15:52;9.40;;;3.00;;
21128;SDS011;10722;51.910;8.352;2023-06-26T12:18:38;11.40;;;3.50;;
21128;SDS011;10722;51.910;8.352;2023-06-26T12:24:19;11.93;;;3.85;;
21128;SDS011;10722;51.910;8.352;2023-06-26T12:27:09;11.68;;;3.17;;
21128;SDS011;10722;51.910;8.352;2023-06-26T12:29:56;10.07;;;3.50;;
21128;SDS011;10722;51.910;8.352;2023-06-26T12:32:44;8.20;;;2.92;;
21128;SDS011;10722;51.910;8.352;2023-06-26T12:35:32;9.50;;;3.08;;
21128;SDS011;10722;51.910;8.352;2023-06-26T12:38:18;10.48;;;3.15;;
21128;SDS011;10722;51.910;8.352;2023-06-26T12:41:03;11.00;;;3.15;;
21128;SDS011;10722;51.910;8.352;2023-06-26T12:43:49;9.77;;;3.00;;
21128;SDS011;10722;51.910;8.352;2023-06-26T12:46:34;11.65;;;3.33;;
21128;SDS011;10722;51.910;8.352;2023-06-26T12:49:20;7.88;;;2.90;;
21128;SDS011;10722;51.910;8.352;2023-06-26T12:52:16;10.93;;;3.30;;
21128;SDS011;10722;51.910;8.352;2023-06-26T12:55:02;12.55;;;3.35;;
21128;SDS011;10722;51.910;8.352;2023-06-26T12:57:47;12.40;;;3.28;;
21128;SDS011;10722;51.910;8.352;2023-06-26T13:00:32;9.40;;;3.10;;
21128;SDS011;10722;51.910;8.352;2023-06-26T13:03:18;11.27;;;3.55;;
21128;SDS011;10722;51.910;8.352;2023-06-26T13:06:04;13.70;;;3.20;;
21128;SDS011;10722;51.910;8.352;2023-06-26T13:08:49;11.10;;;3.13;;
21128;SDS011;10722;51.910;8.352;2023-06-26T13:11:36;37.28;;;25.92;;
21128;SDS011;10722;51.910;8.352;2023-06-26T13:14:21;9.88;;;3.25;;
21128;SDS011;10722;51.910;8.352;2023-06-26T13:17:07;11.85;;;3.17;;
21128;SDS011;10722;51.910;8.352;2023-06-26T13:19:54;11.75;;;3.10;;
21128;SDS011;10722;51.910;8.352;2023-06-26T13:22:39;12.18;;;3.60;;
21128;SDS011;10722;51.910;8.352;2023-06-26T13:25:25;14.65;;;3.63;;
21128;SDS011;10722;51.910;8.352;2023-06-26T13:28:10;9.48;;;3.17;;
21128;SDS011;10722;51.910;8.352;2023-06-26T13:30:55;9.70;;;2.90;;
21128;SDS011;10722;51.910;8.352;2023-06-26T13:33:41;11.38;;;3.10;;
21128;SDS011;10722;51.910;8.352;2023-06-26T13:36:26;12.50;;;3.25;;
21128;SDS011;10722;51.910;8.352;2023-06-26T13:39:12;12.10;;;3.20;;
21128;SDS011;10722;51.910;8.352;2023-06-26T13:41:57;8.77;;;3.00;;
21128;SDS011;10722;51.910;8.352;2023-06-26T13:44:46;11.40;;;3.08;;
21128;SDS011;10722;51.910;8.352;2023-06-26T13:47:45;10.35;;;2.65;;
21128;SDS011;10722;51.910;8.352;2023-06-26T13:50:30;10.15;;;2.90;;
21128;SDS011;10722;51.910;8.352;2023-06-26T13:53:35;13.32;;;2.97;;
21128;SDS011;10722;51.910;8.352;2023-06-26T13:56:20;15.77;;;3.00;;
21128;SDS011;10722;51.910;8.352;2023-06-26T13:59:06;9.30;;;2.58;;
21128;SDS011;10722;51.910;8.352;2023-06-26T14:01:51;10.40;;;2.75;;
21128;SDS011;10722;51.910;8.352;2023-06-26T14:04:37;8.70;;;2.80;;
21128;SDS011;10722;51.910;8.352;2023-06-26T14:07:22;10.13;;;2.60;;
21128;SDS011;10722;51.910;8.352;2023-06-26T14:10:07;12.10;;;2.50;;
21128;SDS011;10722;51.910;8.352;2023-06-26T14:12:53;9.35;;;2.40;;
21128;SDS011;10722;51.910;8.352;2023-06-26T14:15:38;10.00;;;2.50;;
21128;SDS011;10722;51.910;8.352;2023-06-26T14:18:23;8.38;;;2.22;;
21128;SDS011;10722;51.910;8.352;2023-06-26T14:21:09;8.70;;;2.17;;
21128;SDS011;10722;51.910;8.352;2023-06-26T14:23:55;8.98;;;2.60;;
21128;SDS011;10722;51.910;8.352;2023-06-26T14:26:40;10.27;;;2.30;;
21128;SDS011;10722;51.910;8.352;2023-06-26T14:29:25;10.55;;;2.42;;
21128;SDS011;10722;51.910;8.352;2023-06-26T14:32:10;11.27;;;2.22;;
21128;SDS011;10722;51.910;8.352;2023-06-26T14:34:57;14.13;;;2.50;;
21128;SDS011;10722;51.910;8.352;2023-06-26T14:37:43;9.90;;;2.17;;
21128;SDS011;10722;51.910;8.352;2023-06-26T14:40:28;13.10;;;2.20;;
21128;SDS011;10722;51.910;8.352;2023-06-26T14:43:13;7.35;;;1.90;;
21128;SDS011;10722;51.910;8.352;2023-06-26T14:45:59;10.95;;;2.22;;
21128;SDS011;10722;51.910;8.352;2023-06-26T14:48:45;7.78;;;2.00;;
21128;SDS011;10722;51.910;8.352;2023-06-26T14:51:31;10.77;;;1.90;;
21128;SDS011;10722;51.910;8.352;2023-06-26T14:54:16;9.85;;;2.17;;
21128;SDS011;10722;51.910;8.352;2023-06-26T14:57:02;9.63;;;2.17;;
21128;SDS011;10722;51.910;8.352;2023-06-26T14:59:48;12.23;;;2.10;;
21128;SDS011;10722;51.910;8.352;2023-06-26T15:02:34;8.50;;;2.03;;
21128;SDS011;10722;51.910;8.352;2023-06-26T15:05:20;8.45;;;2.10;;
21128;SDS011;10722;51.910;8.352;2023-06-26T15:08:05;6.65;;;2.15;;
21128;SDS011;10722;51.910;8.352;2023-06-26T15:10:51;7.90;;;1.90;;
21128;SDS011;10722;51.910;8.352;2023-06-26T15:13:37;12.10;;;2.30;;
21128;SDS011;10722;51.910;8.352;2023-06-26T15:16:22;12.63;;;2.15;;
21128;SDS011;10722;51.910;8.352;2023-06-26T15:19:07;7.90;;;1.90;;
21128;SDS011;10722;51.910;8.352;2023-06-26T15:21:53;10.15;;;2.30;;
21128;SDS011;10722;51.910;8.352;2023-06-26T15:24:38;10.68;;;2.22;;
21128;SDS011;10722;51.910;8.352;2023-06-26T15:27:24;7.82;;;2.00;;
21128;SDS011;10722;51.910;8.352;2023-06-26T15:30:10;6.03;;;1.95;;
21128;SDS011;10722;51.910;8.352;2023-06-26T15:32:55;9.45;;;2.20;;
21128;SDS011;10722;51.910;8.352;2023-06-26T15:35:40;10.88;;;2.28;;
21128;SDS011;10722;51.910;8.352;2023-06-26T15:38:26;8.55;;;2.05;;
21128;SDS011;10722;51.910;8.352;2023-06-26T15:41:12;6.70;;;1.98;;
21128;SDS011;10722;51.910;8.352;2023-06-26T15:43:57;8.02;;;2.10;;
21128;SDS011;10722;51.910;8.352;2023-06-26T15:46:42;6.82;;;1.80;;
21128;SDS011;10722;51.910;8.352;2023-06-26T15:49:28;9.98;;;2.03;;
21128;SDS011;10722;51.910;8.352;2023-06-26T15:52:13;6.72;;;1.92;;
21128;SDS011;10722;51.910;8.352;2023-06-26T15:54:58;9.38;;;2.30;;
21128;SDS011;10722;51.910;8.352;2023-06-26T15:57:44;13.73;;;5.22;;
21128;SDS011;10722;51.910;8.352;2023-06-26T16:00:29;12.23;;;2.78;;
21128;SDS011;10722;51.910;8.352;2023-06-26T16:03:15;10.25;;;2.55;;
21128;SDS011;10722;51.910;8.352;2023-06-26T16:06:00;11.88;;;2.17;;
21128;SDS011;10722;51.910;8.352;2023-06-26T16:08:46;8.98;;;2.20;;
21128;SDS011;10722;51.910;8.352;2023-06-26T16:11:31;11.80;;;2.35;;
21128;SDS011;10722;51.910;8.352;2023-06-26T16:14:17;6.97;;;1.85;;
21128;SDS011;10722;51.910;8.352;2023-06-26T16:17:02;8.75;;;1.90;;
21128;SDS011;10722;51.910;8.352;2023-06-26T16:19:50;4.45;;;1.83;;
21128;SDS011;10722;51.910;8.352;2023-06-26T16:22:35;6.05;;;1.70;;
21128;SDS011;10722;51.910;8.352;2023-06-26T16:25:21;11.32;;;1.83;;
21128;SDS011;10722;51.910;8.352;2023-06-26T16:28:06;6.90;;;1.80;;
21128;SDS011;10722;51.910;8.352;2023-06-26T16:30:51;7.95;;;1.80;;
21128;SDS011;10722;51.910;8.352;2023-06-26T16:33:37;7.28;;;1.98;;
21128;SDS011;10722;51.910;8.352;2023-06-26T16:36:22;7.38;;;1.85;;
21128;SDS011;10722;51.910;8.352;2023-06-26T16:39:08;6.07;;;1.92;;
21128;SDS011;10722;51.910;8.352;2023-06-26T16:41:53;7.68;;;1.92;;
21128;SDS011;10722;51.910;8.352;2023-06-26T16:44:38;5.43;;;1.70;;
21128;SDS011;10722;51.910;8.352;2023-06-26T16:47:23;8.30;;;1.90;;